sensor_id;sensor_type;location;lat;lon;timestamp;P1;durP1;ratioP1;P2;durP2;ratioP2
12024;SDS011;6073;53.230;10.444;2022-09-09T00:04:18;24.08;;;15.48;;
12024;SDS011;6073;53.230;10.444;2022-09-09T00:09:27;21.55;;;15.73;;
12024;SDS011;6073;53.230;10.444;2022-09-09T00:11:57;24.40;;;16.08;;
12024;SDS011;6073;53.230;10.444;2022-09-09T00:17:11;25.58;;;17.10;;
12024;SDS011;6073;53.230;10.444;2022-09-09T00:19:47;20.63;;;14.45;;
12024;SDS011;6073;53.230;10.444;2022-09-09T00:22:17;24.67;;;17.17;;
12024;SDS011;6073;53.230;10.444;2022-09-09T00:24:45;25.58;;;16.90;;
12024;SDS011;6073;53.230;10.444;2022-09-09T00:27:27;24.33;;;17.45;;
12024;SDS011;6073;53.230;10.444;2022-09-09T00:32:41;21.33;;;15.48;;
12024;SDS011;6073;53.230;10.444;2022-09-09T00:37:47;21.52;;;16.30;;
12024;SDS011;6073;53.230;10.444;2022-09-09T00:40:32;20.67;;;15.73;;
12024;SDS011;6073;53.230;10.444;2022-09-09T00:43:10;22.83;;;16.13;;
12024;SDS011;6073;53.230;10.444;2022-09-09T00:48:31;21.00;;;14.82;;
12024;SDS011;6073;53.230;10.444;2022-09-09T00:51:10;19.88;;;14.48;;
12024;SDS011;6073;53.230;10.444;2022-09-09T00:56:16;25.52;;;17.42;;
12024;SDS011;6073;53.230;10.444;2022-09-09T01:01:37;23.73;;;16.75;;
12024;SDS011;6073;53.230;10.444;2022-09-09T01:04:05;24.63;;;16.58;;
12024;SDS011;6073;53.230;10.444;2022-09-09T01:06:41;24.58;;;17.27;;
12024;SDS011;6073;53.230;10.444;2022-09-09T01:11:49;27.83;;;18.13;;
12024;SDS011;6073;53.230;10.444;2022-09-09T01:17:09;25.45;;;17.27;;
12024;SDS011;6073;53.230;10.444;2022-09-09T01:20:02;23.77;;;16.15;;
12024;SDS011;6073;53.230;10.444;2022-09-09T01:27:53;26.58;;;18.75;;
12024;SDS011;6073;53.230;10.444;2022-09-09T01:30:21;26.50;;;17.58;;
12024;SDS011;6073;53.230;10.444;2022-09-09T01:32:53;23.25;;;16.98;;
12024;SDS011;6073;53.230;10.444;2022-09-09T01:35:32;24.98;;;17.35;;
12024;SDS011;6073;53.230;10.444;2022-09-09T01:38:15;28.60;;;19.95;;
12024;SDS011;6073;53.230;10.444;2022-09-09T01:40:42;25.65;;;17.25;;
12024;SDS011;6073;53.230;10.444;2022-09-09T01:43:08;30.77;;;19.17;;
12024;SDS011;6073;53.230;10.444;2022-09-09T01:45:34;27.17;;;18.88;;
12024;SDS011;6073;53.230;10.444;2022-09-09T01:48:00;22.42;;;16.10;;
12024;SDS011;6073;53.230;10.444;2022-09-09T01:50:27;27.13;;;19.33;;
12024;SDS011;6073;53.230;10.444;2022-09-09T01:52:54;25.70;;;17.13;;
12024;SDS011;6073;53.230;10.444;2022-09-09T01:55:30;29.75;;;18.73;;
12024;SDS011;6073;53.230;10.444;2022-09-09T02:00:27;26.23;;;17.60;;
12024;SDS011;6073;53.230;10.444;2022-09-09T02:03:08;24.08;;;16.95;;
12024;SDS011;6073;53.230;10.444;2022-09-09T02:05:58;27.80;;;17.55;;
12024;SDS011;6073;53.230;10.444;2022-09-09T02:13:32;24.58;;;16.58;;
12024;SDS011;6073;53.230;10.444;2022-09-09T02:16:07;24.17;;;16.33;;
12024;SDS011;6073;53.230;10.444;2022-09-09T02:18:35;21.65;;;15.32;;
12024;SDS011;6073;53.230;10.444;2022-09-09T02:21:09;23.35;;;15.40;;
12024;SDS011;6073;53.230;10.444;2022-09-09T02:23:36;23.27;;;16.02;;
12024;SDS011;6073;53.230;10.444;2022-09-09T02:26:04;23.88;;;16.77;;
12024;SDS011;6073;53.230;10.444;2022-09-09T02:28:32;26.13;;;17.25;;
12024;SDS011;6073;53.230;10.444;2022-09-09T02:31:00;26.10;;;16.90;;
12024;SDS011;6073;53.230;10.444;2022-09-09T02:33:27;23.60;;;14.95;;
12024;SDS011;6073;53.230;10.444;2022-09-09T02:35:59;22.15;;;15.73;;
12024;SDS011;6073;53.230;10.444;2022-09-09T02:38:28;20.35;;;14.13;;
12024;SDS011;6073;53.230;10.444;2022-09-09T02:40:58;21.77;;;15.25;;
12024;SDS011;6073;53.230;10.444;2022-09-09T02:43:23;24.33;;;14.68;;
12024;SDS011;6073;53.230;10.444;2022-09-09T02:45:56;19.42;;;14.85;;
12024;SDS011;6073;53.230;10.444;2022-09-09T02:48:34;21.05;;;15.02;;
12024;SDS011;6073;53.230;10.444;2022-09-09T02:51:30;21.48;;;14.15;;
12024;SDS011;6073;53.230;10.444;2022-09-09T02:54:10;23.40;;;15.57;;
12024;SDS011;6073;53.230;10.444;2022-09-09T02:56:49;23.63;;;16.02;;
12024;SDS011;6073;53.230;10.444;2022-09-09T02:59:19;23.58;;;15.65;;
12024;SDS011;6073;53.230;10.444;2022-09-09T03:01:45;24.15;;;16.75;;
12024;SDS011;6073;53.230;10.444;2022-09-09T03:04:12;23.75;;;16.33;;
12024;SDS011;6073;53.230;10.444;2022-09-09T03:06:37;19.98;;;14.95;;
12024;SDS011;6073;53.230;10.444;2022-09-09T03:09:03;19.80;;;14.05;;
12024;SDS011;6073;53.230;10.444;2022-09-09T03:11:29;20.83;;;15.38;;
12024;SDS011;6073;53.230;10.444;2022-09-09T03:13:54;19.25;;;14.15;;
12024;SDS011;6073;53.230;10.444;2022-09-09T03:16:21;22.30;;;14.90;;
12024;SDS011;6073;53.230;10.444;2022-09-09T03:18:47;20.63;;;14.45;;
12024;SDS011;6073;53.230;10.444;2022-09-09T03:21:13;18.08;;;13.57;;
12024;SDS011;6073;53.230;10.444;2022-09-09T03:23:39;20.27;;;14.32;;
12024;SDS011;6073;53.230;10.444;2022-09-09T03:26:05;20.08;;;14.13;;
12024;SDS011;6073;53.230;10.444;2022-09-09T03:28:30;19.65;;;13.57;;
12024;SDS011;6073;53.230;10.444;2022-09-09T03:30:59;19.02;;;13.82;;
12024;SDS011;6073;53.230;10.444;2022-09-09T03:33:26;20.98;;;14.80;;
12024;SDS011;6073;53.230;10.444;2022-09-09T03:35:52;17.95;;;13.68;;
12024;SDS011;6073;53.230;10.444;2022-09-09T03:38:18;17.92;;;13.40;;
12024;SDS011;6073;53.230;10.444;2022-09-09T03:40:50;17.25;;;13.55;;
12024;SDS011;6073;53.230;10.444;2022-09-09T03:43:20;16.15;;;12.70;;
12024;SDS011;6073;53.230;10.444;2022-09-09T03:45:46;18.35;;;12.30;;
12024;SDS011;6073;53.230;10.444;2022-09-09T03:48:12;17.83;;;13.90;;
12024;SDS011;6073;53.230;10.444;2022-09-09T03:50:38;19.63;;;13.95;;
12024;SDS011;6073;53.230;10.444;2022-09-09T03:53:09;15.82;;;12.68;;
12024;SDS011;6073;53.230;10.444;2022-09-09T03:55:34;17.38;;;13.25;;
12024;SDS011;6073;53.230;10.444;2022-09-09T03:58:00;15.70;;;12.70;;
12024;SDS011;6073;53.230;10.444;2022-09-09T04:00:28;17.13;;;13.25;;
12024;SDS011;6073;53.230;10.444;2022-09-09T04:02:55;19.00;;;12.85;;
12024;SDS011;6073;53.230;10.444;2022-09-09T04:05:25;16.15;;;12.05;;
12024;SDS011;6073;53.230;10.444;2022-09-09T04:07:51;15.23;;;11.30;;
12024;SDS011;6073;53.230;10.444;2022-09-09T04:10:16;15.68;;;11.75;;
12024;SDS011;6073;53.230;10.444;2022-09-09T04:12:45;17.60;;;12.63;;
12024;SDS011;6073;53.230;10.444;2022-09-09T04:15:11;16.50;;;12.13;;
12024;SDS011;6073;53.230;10.444;2022-09-09T04:17:36;15.05;;;11.80;;
12024;SDS011;6073;53.230;10.444;2022-09-09T04:20:02;18.88;;;12.90;;
12024;SDS011;6073;53.230;10.444;2022-09-09T04:22:31;20.15;;;14.02;;
12024;SDS011;6073;53.230;10.444;2022-09-09T04:24:59;20.77;;;12.82;;
12024;SDS011;6073;53.230;10.444;2022-09-09T04:27:24;16.95;;;12.40;;
12024;SDS011;6073;53.230;10.444;2022-09-09T04:29:50;18.23;;;13.63;;
12024;SDS011;6073;53.230;10.444;2022-09-09T04:32:15;17.67;;;13.02;;
12024;SDS011;6073;53.230;10.444;2022-09-09T04:34:44;17.13;;;11.82;;
12024;SDS011;6073;53.230;10.444;2022-09-09T04:37:09;15.40;;;11.65;;
12024;SDS011;6073;53.230;10.444;2022-09-09T04:39:35;14.65;;;12.18;;
12024;SDS011;6073;53.230;10.444;2022-09-09T04:42:06;15.32;;;11.40;;
12024;SDS011;6073;53.230;10.444;2022-09-09T04:44:32;14.73;;;10.50;;
12024;SDS011;6073;53.230;10.444;2022-09-09T04:46:57;15.80;;;11.63;;
12024;SDS011;6073;53.230;10.444;2022-09-09T04:49:23;13.45;;;10.73;;
12024;SDS011;6073;53.230;10.444;2022-09-09T04:51:49;12.93;;;10.48;;
12024;SDS011;6073;53.230;10.444;2022-09-09T04:54:17;14.55;;;9.68;;
12024;SDS011;6073;53.230;10.444;2022-09-09T04:56:43;11.63;;;10.25;;
12024;SDS011;6073;53.230;10.444;2022-09-09T04:59:09;12.82;;;9.60;;
12024;SDS011;6073;53.230;10.444;2022-09-09T05:01:40;12.75;;;9.23;;
12024;SDS011;6073;53.230;10.444;2022-09-09T05:04:06;10.75;;;8.75;;
12024;SDS011;6073;53.230;10.444;2022-09-09T05:06:31;10.75;;;8.50;;
12024;SDS011;6073;53.230;10.444;2022-09-09T05:08:57;10.80;;;8.43;;
12024;SDS011;6073;53.230;10.444;2022-09-09T05:11:26;13.70;;;8.70;;
12024;SDS011;6073;53.230;10.444;2022-09-09T05:13:57;12.82;;;8.07;;
12024;SDS011;6073;53.230;10.444;2022-09-09T05:16:22;10.70;;;7.45;;
12024;SDS011;6073;53.230;10.444;2022-09-09T05:18:48;9.13;;;7.75;;
12024;SDS011;6073;53.230;10.444;2022-09-09T05:21:16;10.55;;;7.70;;
12024;SDS011;6073;53.230;10.444;2022-09-09T05:23:45;9.85;;;7.85;;
12024;SDS011;6073;53.230;10.444;2022-09-09T05:26:13;11.25;;;7.95;;
12024;SDS011;6073;53.230;10.444;2022-09-09T05:28:46;10.50;;;7.35;;
12024;SDS011;6073;53.230;10.444;2022-09-09T05:31:12;9.90;;;7.57;;
12024;SDS011;6073;53.230;10.444;2022-09-09T05:33:39;9.20;;;7.32;;
12024;SDS011;6073;53.230;10.444;2022-09-09T05:36:08;10.23;;;7.18;;
12024;SDS011;6073;53.230;10.444;2022-09-09T05:38:39;8.90;;;7.18;;
12024;SDS011;6073;53.230;10.444;2022-09-09T05:41:09;7.90;;;6.55;;
12024;SDS011;6073;53.230;10.444;2022-09-09T05:43:40;9.75;;;7.20;;
12024;SDS011;6073;53.230;10.444;2022-09-09T05:46:10;8.65;;;7.03;;
12024;SDS011;6073;53.230;10.444;2022-09-09T05:48:43;6.70;;;5.88;;
12024;SDS011;6073;53.230;10.444;2022-09-09T05:51:13;7.18;;;6.38;;
12024;SDS011;6073;53.230;10.444;2022-09-09T05:53:40;7.22;;;6.10;;
12024;SDS011;6073;53.230;10.444;2022-09-09T05:56:11;6.65;;;5.45;;
12024;SDS011;6073;53.230;10.444;2022-09-09T05:58:42;6.28;;;5.32;;
12024;SDS011;6073;53.230;10.444;2022-09-09T06:01:18;6.45;;;5.32;;
12024;SDS011;6073;53.230;10.444;2022-09-09T06:03:52;7.45;;;4.88;;
12024;SDS011;6073;53.230;10.444;2022-09-09T06:06:19;8.27;;;5.15;;
12024;SDS011;6073;53.230;10.444;2022-09-09T06:08:51;6.65;;;4.68;;
12024;SDS011;6073;53.230;10.444;2022-09-09T06:11:22;5.15;;;4.45;;
12024;SDS011;6073;53.230;10.444;2022-09-09T06:13:49;4.22;;;3.63;;
12024;SDS011;6073;53.230;10.444;2022-09-09T06:16:20;4.68;;;4.25;;
12024;SDS011;6073;53.230;10.444;2022-09-09T06:18:48;4.32;;;3.92;;
12024;SDS011;6073;53.230;10.444;2022-09-09T06:21:19;6.35;;;4.25;;
12024;SDS011;6073;53.230;10.444;2022-09-09T06:23:46;4.35;;;3.90;;
12024;SDS011;6073;53.230;10.444;2022-09-09T06:26:17;5.13;;;3.88;;
12024;SDS011;6073;53.230;10.444;2022-09-09T06:28:44;4.53;;;3.97;;
12024;SDS011;6073;53.230;10.444;2022-09-09T06:31:15;5.47;;;4.00;;
12024;SDS011;6073;53.230;10.444;2022-09-09T06:33:48;4.40;;;4.00;;
12024;SDS011;6073;53.230;10.444;2022-09-09T06:36:19;4.90;;;4.10;;
12024;SDS011;6073;53.230;10.444;2022-09-09T06:38:52;4.53;;;3.72;;
12024;SDS011;6073;53.230;10.444;2022-09-09T06:41:22;6.50;;;4.07;;
12024;SDS011;6073;53.230;10.444;2022-09-09T06:43:49;5.32;;;4.03;;
12024;SDS011;6073;53.230;10.444;2022-09-09T06:46:15;4.78;;;4.30;;
12024;SDS011;6073;53.230;10.444;2022-09-09T06:48:43;4.95;;;4.07;;
12024;SDS011;6073;53.230;10.444;2022-09-09T06:51:19;5.93;;;4.43;;
12024;SDS011;6073;53.230;10.444;2022-09-09T06:53:46;4.97;;;4.47;;
12024;SDS011;6073;53.230;10.444;2022-09-09T06:58:46;5.85;;;4.55;;
12024;SDS011;6073;53.230;10.444;2022-09-09T07:01:14;4.75;;;3.83;;
12024;SDS011;6073;53.230;10.444;2022-09-09T07:04:01;3.55;;;3.00;;
12024;SDS011;6073;53.230;10.444;2022-09-09T07:06:29;3.70;;;2.50;;
12024;SDS011;6073;53.230;10.444;2022-09-09T07:09:09;3.45;;;2.58;;
12024;SDS011;6073;53.230;10.444;2022-09-09T07:11:40;2.92;;;2.42;;
12024;SDS011;6073;53.230;10.444;2022-09-09T07:14:07;3.58;;;2.35;;
12024;SDS011;6073;53.230;10.444;2022-09-09T07:16:34;1.92;;;1.77;;
12024;SDS011;6073;53.230;10.444;2022-09-09T07:19:02;3.67;;;2.08;;
12024;SDS011;6073;53.230;10.444;2022-09-09T07:21:29;2.10;;;1.80;;
12024;SDS011;6073;53.230;10.444;2022-09-09T07:23:58;2.67;;;2.00;;
12024;SDS011;6073;53.230;10.444;2022-09-09T07:26:28;2.38;;;2.00;;
12024;SDS011;6073;53.230;10.444;2022-09-09T07:28:55;4.10;;;2.38;;
12024;SDS011;6073;53.230;10.444;2022-09-09T07:31:26;3.10;;;1.75;;
12024;SDS011;6073;53.230;10.444;2022-09-09T07:33:55;2.92;;;1.77;;
12024;SDS011;6073;53.230;10.444;2022-09-09T07:36:22;3.45;;;2.00;;
12024;SDS011;6073;53.230;10.444;2022-09-09T07:38:56;2.80;;;1.60;;
12024;SDS011;6073;53.230;10.444;2022-09-09T07:41:27;2.75;;;1.52;;
12024;SDS011;6073;53.230;10.444;2022-09-09T07:44:03;3.95;;;2.05;;
12024;SDS011;6073;53.230;10.444;2022-09-09T07:46:35;3.08;;;1.67;;
12024;SDS011;6073;53.230;10.444;2022-09-09T07:49:07;3.13;;;1.80;;
12024;SDS011;6073;53.230;10.444;2022-09-09T07:51:37;1.88;;;1.60;;
12024;SDS011;6073;53.230;10.444;2022-09-09T07:54:06;2.55;;;1.67;;
12024;SDS011;6073;53.230;10.444;2022-09-09T07:56:34;2.20;;;1.98;;
12024;SDS011;6073;53.230;10.444;2022-09-09T07:59:01;1.83;;;1.73;;
12024;SDS011;6073;53.230;10.444;2022-09-09T08:01:27;2.33;;;2.13;;
12024;SDS011;6073;53.230;10.444;2022-09-09T08:06:29;2.22;;;1.88;;
12024;SDS011;6073;53.230;10.444;2022-09-09T08:09:05;2.75;;;2.03;;
12024;SDS011;6073;53.230;10.444;2022-09-09T08:11:32;3.10;;;2.15;;
12024;SDS011;6073;53.230;10.444;2022-09-09T08:13:58;2.47;;;2.28;;
12024;SDS011;6073;53.230;10.444;2022-09-09T08:16:28;4.40;;;2.22;;
12024;SDS011;6073;53.230;10.444;2022-09-09T08:18:59;2.97;;;1.98;;
12024;SDS011;6073;53.230;10.444;2022-09-09T08:21:26;2.53;;;1.95;;
12024;SDS011;6073;53.230;10.444;2022-09-09T08:23:53;3.83;;;2.05;;
12024;SDS011;6073;53.230;10.444;2022-09-09T08:26:23;3.13;;;2.00;;
12024;SDS011;6073;53.230;10.444;2022-09-09T08:28:52;3.83;;;2.00;;
12024;SDS011;6073;53.230;10.444;2022-09-09T08:31:32;4.85;;;2.40;;
12024;SDS011;6073;53.230;10.444;2022-09-09T08:34:02;2.72;;;2.17;;
12024;SDS011;6073;53.230;10.444;2022-09-09T08:36:32;3.33;;;2.10;;
12024;SDS011;6073;53.230;10.444;2022-09-09T08:39:01;3.35;;;2.22;;
12024;SDS011;6073;53.230;10.444;2022-09-09T08:41:51;2.70;;;2.20;;
12024;SDS011;6073;53.230;10.444;2022-09-09T08:47:39;4.45;;;2.00;;
12024;SDS011;6073;53.230;10.444;2022-09-09T08:53:04;7.32;;;2.22;;
12024;SDS011;6073;53.230;10.444;2022-09-09T08:55:52;2.95;;;1.95;;
12024;SDS011;6073;53.230;10.444;2022-09-09T08:58:28;3.65;;;1.70;;
12024;SDS011;6073;53.230;10.444;2022-09-09T09:03:35;2.60;;;1.83;;
12024;SDS011;6073;53.230;10.444;2022-09-09T09:11:41;4.07;;;1.90;;
12024;SDS011;6073;53.230;10.444;2022-09-09T09:14:20;4.20;;;1.90;;
12024;SDS011;6073;53.230;10.444;2022-09-09T09:17:02;1.98;;;1.55;;
12024;SDS011;6073;53.230;10.444;2022-09-09T09:19:32;5.00;;;2.30;;
12024;SDS011;6073;53.230;10.444;2022-09-09T09:30:16;4.30;;;2.20;;
12024;SDS011;6073;53.230;10.444;2022-09-09T09:32:48;2.58;;;1.80;;
12024;SDS011;6073;53.230;10.444;2022-09-09T09:35:23;2.03;;;1.80;;
12024;SDS011;6073;53.230;10.444;2022-09-09T09:37:49;4.53;;;2.25;;
12024;SDS011;6073;53.230;10.444;2022-09-09T09:40:16;4.85;;;2.20;;
12024;SDS011;6073;53.230;10.444;2022-09-09T09:42:50;3.65;;;1.85;;
12024;SDS011;6073;53.230;10.444;2022-09-09T09:45:27;3.25;;;1.83;;
12024;SDS011;6073;53.230;10.444;2022-09-09T09:48:04;3.47;;;1.80;;
12024;SDS011;6073;53.230;10.444;2022-09-09T09:50:31;5.35;;;1.90;;
12024;SDS011;6073;53.230;10.444;2022-09-09T09:53:04;4.28;;;1.92;;
12024;SDS011;6073;53.230;10.444;2022-09-09T09:55:31;2.20;;;1.80;;
12024;SDS011;6073;53.230;10.444;2022-09-09T09:58:06;3.33;;;2.15;;
12024;SDS011;6073;53.230;10.444;2022-09-09T10:00:47;4.82;;;2.00;;
12024;SDS011;6073;53.230;10.444;2022-09-09T10:03:25;2.92;;;1.63;;
12024;SDS011;6073;53.230;10.444;2022-09-09T10:05:52;4.00;;;2.00;;
12024;SDS011;6073;53.230;10.444;2022-09-09T10:08:18;4.90;;;2.05;;
12024;SDS011;6073;53.230;10.444;2022-09-09T10:13:42;2.03;;;1.67;;
12024;SDS011;6073;53.230;10.444;2022-09-09T10:16:29;3.72;;;1.73;;
12024;SDS011;6073;53.230;10.444;2022-09-09T10:22:09;2.13;;;1.45;;
12024;SDS011;6073;53.230;10.444;2022-09-09T10:35:19;3.00;;;2.00;;
12024;SDS011;6073;53.230;10.444;2022-09-09T10:43:45;1.42;;;1.17;;
12024;SDS011;6073;53.230;10.444;2022-09-09T10:49:20;2.00;;;1.20;;
12024;SDS011;6073;53.230;10.444;2022-09-09T10:52:04;2.30;;;1.55;;
12024;SDS011;6073;53.230;10.444;2022-09-09T10:57:17;1.58;;;1.42;;
12024;SDS011;6073;53.230;10.444;2022-09-09T10:59:48;3.65;;;1.85;;
12024;SDS011;6073;53.230;10.444;2022-09-09T11:02:20;2.50;;;1.75;;
12024;SDS011;6073;53.230;10.444;2022-09-09T11:04:58;2.58;;;1.70;;
12024;SDS011;6073;53.230;10.444;2022-09-09T11:07:30;2.42;;;1.60;;
12024;SDS011;6073;53.230;10.444;2022-09-09T11:10:30;2.58;;;1.60;;
12024;SDS011;6073;53.230;10.444;2022-09-09T11:13:10;2.60;;;1.67;;
12024;SDS011;6073;53.230;10.444;2022-09-09T11:15:50;2.03;;;1.42;;
12024;SDS011;6073;53.230;10.444;2022-09-09T11:18:20;2.58;;;1.48;;
12024;SDS011;6073;53.230;10.444;2022-09-09T11:20:48;2.45;;;1.50;;
12024;SDS011;6073;53.230;10.444;2022-09-09T11:23:25;2.08;;;1.17;;
12024;SDS011;6073;53.230;10.444;2022-09-09T11:25:55;3.38;;;1.30;;
12024;SDS011;6073;53.230;10.444;2022-09-09T11:37:35;3.03;;;1.40;;
12024;SDS011;6073;53.230;10.444;2022-09-09T11:40:26;2.20;;;1.35;;
12024;SDS011;6073;53.230;10.444;2022-09-09T11:43:17;2.28;;;1.48;;
12024;SDS011;6073;53.230;10.444;2022-09-09T11:45:42;6.68;;;2.40;;
12024;SDS011;6073;53.230;10.444;2022-09-09T11:48:22;6.35;;;2.38;;
12024;SDS011;6073;53.230;10.444;2022-09-09T11:53:52;4.53;;;2.00;;
12024;SDS011;6073;53.230;10.444;2022-09-09T11:56:57;3.38;;;2.15;;
12024;SDS011;6073;53.230;10.444;2022-09-09T11:59:27;3.60;;;2.03;;
12024;SDS011;6073;53.230;10.444;2022-09-09T12:02:29;2.78;;;2.10;;
12024;SDS011;6073;53.230;10.444;2022-09-09T12:12:37;4.57;;;2.05;;
12024;SDS011;6073;53.230;10.444;2022-09-09T12:15:17;4.32;;;2.08;;
12024;SDS011;6073;53.230;10.444;2022-09-09T12:40:18;3.10;;;1.80;;
12024;SDS011;6073;53.230;10.444;2022-09-09T12:42:47;3.75;;;1.85;;
12024;SDS011;6073;53.230;10.444;2022-09-09T12:47:59;2.13;;;1.80;;
12024;SDS011;6073;53.230;10.444;2022-09-09T12:50:29;5.07;;;2.05;;
12024;SDS011;6073;53.230;10.444;2022-09-09T12:52:58;4.65;;;1.80;;
12024;SDS011;6073;53.230;10.444;2022-09-09T12:55:35;3.83;;;1.65;;
12024;SDS011;6073;53.230;10.444;2022-09-09T12:58:02;3.30;;;1.70;;
12024;SDS011;6073;53.230;10.444;2022-09-09T13:00:31;5.80;;;1.80;;
12024;SDS011;6073;53.230;10.444;2022-09-09T13:02:58;3.35;;;2.00;;
12024;SDS011;6073;53.230;10.444;2022-09-09T13:05:34;2.72;;;1.90;;
12024;SDS011;6073;53.230;10.444;2022-09-09T13:08:02;3.15;;;2.10;;
12024;SDS011;6073;53.230;10.444;2022-09-09T13:10:35;3.67;;;2.20;;
12024;SDS011;6073;53.230;10.444;2022-09-09T13:13:14;5.50;;;2.55;;
12024;SDS011;6073;53.230;10.444;2022-09-09T13:16:03;4.05;;;2.42;;
12024;SDS011;6073;53.230;10.444;2022-09-09T13:18:35;3.42;;;2.63;;
12024;SDS011;6073;53.230;10.444;2022-09-09T13:21:03;3.53;;;2.50;;
12024;SDS011;6073;53.230;10.444;2022-09-09T13:23:33;3.63;;;2.40;;
12024;SDS011;6073;53.230;10.444;2022-09-09T13:26:21;2.08;;;1.83;;
12024;SDS011;6073;53.230;10.444;2022-09-09T13:28:54;2.10;;;1.90;;
12024;SDS011;6073;53.230;10.444;2022-09-09T13:32:03;2.72;;;1.98;;
12024;SDS011;6073;53.230;10.444;2022-09-09T13:34:25;2.35;;;2.05;;
12024;SDS011;6073;53.230;10.444;2022-09-09T13:36:56;4.28;;;2.13;;
12024;SDS011;6073;53.230;10.444;2022-09-09T13:39:30;2.70;;;1.80;;
12024;SDS011;6073;53.230;10.444;2022-09-09T13:42:00;3.47;;;2.17;;
12024;SDS011;6073;53.230;10.444;2022-09-09T13:44:34;2.63;;;2.30;;
12024;SDS011;6073;53.230;10.444;2022-09-09T13:47:20;3.47;;;2.50;;
12024;SDS011;6073;53.230;10.444;2022-09-09T13:49:51;4.03;;;2.67;;
12024;SDS011;6073;53.230;10.444;2022-09-09T13:52:17;3.72;;;2.67;;
12024;SDS011;6073;53.230;10.444;2022-09-09T13:54:47;4.68;;;2.70;;
12024;SDS011;6073;53.230;10.444;2022-09-09T13:57:24;2.92;;;2.55;;
12024;SDS011;6073;53.230;10.444;2022-09-09T13:59:51;4.05;;;2.67;;
12024;SDS011;6073;53.230;10.444;2022-09-09T14:02:17;2.80;;;2.50;;
12024;SDS011;6073;53.230;10.444;2022-09-09T14:04:44;5.03;;;2.85;;
12024;SDS011;6073;53.230;10.444;2022-09-09T14:07:13;3.17;;;2.05;;
12024;SDS011;6073;53.230;10.444;2022-09-09T14:09:40;1.92;;;1.73;;
12024;SDS011;6073;53.230;10.444;2022-09-09T14:12:12;2.25;;;1.42;;
12024;SDS011;6073;53.230;10.444;2022-09-09T14:14:39;5.05;;;1.90;;
12024;SDS011;6073;53.230;10.444;2022-09-09T14:17:07;2.00;;;1.60;;
12024;SDS011;6073;53.230;10.444;2022-09-09T14:19:33;2.92;;;1.52;;
12024;SDS011;6073;53.230;10.444;2022-09-09T14:21:58;2.33;;;1.30;;
12024;SDS011;6073;53.230;10.444;2022-09-09T14:24:24;2.38;;;1.50;;
12024;SDS011;6073;53.230;10.444;2022-09-09T14:26:50;3.20;;;1.40;;
12024;SDS011;6073;53.230;10.444;2022-09-09T14:29:16;1.40;;;1.30;;
12024;SDS011;6073;53.230;10.444;2022-09-09T14:31:41;2.72;;;1.27;;
12024;SDS011;6073;53.230;10.444;2022-09-09T14:34:07;2.85;;;1.75;;
12024;SDS011;6073;53.230;10.444;2022-09-09T14:36:32;1.40;;;1.20;;
12024;SDS011;6073;53.230;10.444;2022-09-09T14:38:58;2.30;;;1.40;;
12024;SDS011;6073;53.230;10.444;2022-09-09T14:41:24;2.03;;;1.20;;
12024;SDS011;6073;53.230;10.444;2022-09-09T14:43:50;2.75;;;1.20;;
12024;SDS011;6073;53.230;10.444;2022-09-09T14:46:17;1.60;;;1.13;;
12024;SDS011;6073;53.230;10.444;2022-09-09T14:48:43;2.65;;;1.17;;
12024;SDS011;6073;53.230;10.444;2022-09-09T14:51:14;1.40;;;1.30;;
12024;SDS011;6073;53.230;10.444;2022-09-09T14:53:45;3.17;;;1.45;;
12024;SDS011;6073;53.230;10.444;2022-09-09T14:56:17;1.20;;;1.10;;
12024;SDS011;6073;53.230;10.444;2022-09-09T14:58:48;2.22;;;1.33;;
12024;SDS011;6073;53.230;10.444;2022-09-09T15:01:14;2.05;;;1.20;;
12024;SDS011;6073;53.230;10.444;2022-09-09T15:03:55;2.00;;;1.33;;
12024;SDS011;6073;53.230;10.444;2022-09-09T15:06:23;1.85;;;1.50;;
12024;SDS011;6073;53.230;10.444;2022-09-09T15:08:50;2.47;;;1.55;;
12024;SDS011;6073;53.230;10.444;2022-09-09T15:11:17;3.55;;;1.65;;
12024;SDS011;6073;53.230;10.444;2022-09-09T15:13:43;1.77;;;1.60;;
12024;SDS011;6073;53.230;10.444;2022-09-09T15:16:17;2.45;;;1.75;;
12024;SDS011;6073;53.230;10.444;2022-09-09T15:18:44;4.05;;;1.52;;
12024;SDS011;6073;53.230;10.444;2022-09-09T15:21:18;2.78;;;1.77;;
12024;SDS011;6073;53.230;10.444;2022-09-09T15:23:48;2.50;;;2.00;;
12024;SDS011;6073;53.230;10.444;2022-09-09T15:26:15;3.53;;;2.22;;
12024;SDS011;6073;53.230;10.444;2022-09-09T15:28:41;3.38;;;2.30;;
12024;SDS011;6073;53.230;10.444;2022-09-09T15:31:13;2.13;;;1.92;;
12024;SDS011;6073;53.230;10.444;2022-09-09T15:33:45;2.80;;;2.13;;
12024;SDS011;6073;53.230;10.444;2022-09-09T15:36:22;4.20;;;2.60;;
12024;SDS011;6073;53.230;10.444;2022-09-09T15:38:52;3.13;;;2.38;;
12024;SDS011;6073;53.230;10.444;2022-09-09T15:41:18;5.30;;;3.05;;
12024;SDS011;6073;53.230;10.444;2022-09-09T15:43:46;3.67;;;2.45;;
12024;SDS011;6073;53.230;10.444;2022-09-09T15:48:42;3.88;;;2.47;;
12024;SDS011;6073;53.230;10.444;2022-09-09T15:51:11;3.97;;;2.60;;
12024;SDS011;6073;53.230;10.444;2022-09-09T15:53:38;4.95;;;2.88;;
12024;SDS011;6073;53.230;10.444;2022-09-09T15:56:04;3.17;;;2.38;;
12024;SDS011;6073;53.230;10.444;2022-09-09T15:58:31;3.92;;;2.97;;
12024;SDS011;6073;53.230;10.444;2022-09-09T16:01:07;4.47;;;2.47;;
12024;SDS011;6073;53.230;10.444;2022-09-09T16:03:36;4.93;;;2.60;;
12024;SDS011;6073;53.230;10.444;2022-09-09T16:06:03;7.45;;;2.53;;
12024;SDS011;6073;53.230;10.444;2022-09-09T16:08:33;2.65;;;1.95;;
12024;SDS011;6073;53.230;10.444;2022-09-09T16:11:08;2.75;;;1.88;;
12024;SDS011;6073;53.230;10.444;2022-09-09T16:13:36;2.10;;;1.90;;
12024;SDS011;6073;53.230;10.444;2022-09-09T16:16:02;2.83;;;1.90;;
12024;SDS011;6073;53.230;10.444;2022-09-09T16:18:39;2.83;;;2.03;;
12024;SDS011;6073;53.230;10.444;2022-09-09T16:21:07;3.17;;;1.75;;
12024;SDS011;6073;53.230;10.444;2022-09-09T16:23:36;2.25;;;1.50;;
12024;SDS011;6073;53.230;10.444;2022-09-09T16:26:01;2.85;;;2.00;;
12024;SDS011;6073;53.230;10.444;2022-09-09T16:28:27;3.70;;;1.80;;
12024;SDS011;6073;53.230;10.444;2022-09-09T16:30:53;2.50;;;1.80;;
12024;SDS011;6073;53.230;10.444;2022-09-09T16:33:19;2.08;;;1.85;;
12024;SDS011;6073;53.230;10.444;2022-09-09T16:35:45;3.10;;;1.80;;
12024;SDS011;6073;53.230;10.444;2022-09-09T16:38:10;2.47;;;1.75;;
12024;SDS011;6073;53.230;10.444;2022-09-09T16:40:39;1.75;;;1.60;;
12024;SDS011;6073;53.230;10.444;2022-09-09T16:43:06;2.50;;;1.80;;
12024;SDS011;6073;53.230;10.444;2022-09-09T16:45:32;3.05;;;2.10;;
12024;SDS011;6073;53.230;10.444;2022-09-09T16:47:57;2.47;;;1.83;;
12024;SDS011;6073;53.230;10.444;2022-09-09T16:50:26;3.30;;;1.70;;
12024;SDS011;6073;53.230;10.444;2022-09-09T16:52:52;2.90;;;1.90;;
12024;SDS011;6073;53.230;10.444;2022-09-09T16:55:18;1.90;;;1.70;;
12024;SDS011;6073;53.230;10.444;2022-09-09T16:57:45;2.15;;;1.95;;
12024;SDS011;6073;53.230;10.444;2022-09-09T17:00:13;2.10;;;1.83;;
12024;SDS011;6073;53.230;10.444;2022-09-09T17:02:41;4.47;;;2.42;;
12024;SDS011;6073;53.230;10.444;2022-09-09T17:05:07;3.88;;;2.00;;
12024;SDS011;6073;53.230;10.444;2022-09-09T17:07:34;2.15;;;1.65;;
12024;SDS011;6073;53.230;10.444;2022-09-09T17:10:00;2.10;;;1.85;;
12024;SDS011;6073;53.230;10.444;2022-09-09T17:12:26;5.63;;;2.30;;
12024;SDS011;6073;53.230;10.444;2022-09-09T17:14:51;4.60;;;2.25;;
12024;SDS011;6073;53.230;10.444;2022-09-09T17:17:17;3.00;;;2.30;;
12024;SDS011;6073;53.230;10.444;2022-09-09T17:19:43;3.10;;;2.47;;
12024;SDS011;6073;53.230;10.444;2022-09-09T17:22:08;2.85;;;2.30;;
12024;SDS011;6073;53.230;10.444;2022-09-09T17:24:34;4.70;;;2.70;;